sensor_id;sensor_type;location;lat;lon;timestamp;temperature;humidity
2012;DHT22;1009;51.436;6.972;2023-10-08T00:02:17;18.50;99.90
2012;DHT22;1009;51.436;6.972;2023-10-08T00:04:48;18.50;99.90
2012;DHT22;1009;51.436;6.972;2023-10-08T00:07:17;18.50;99.90
2012;DHT22;1009;51.436;6.972;2023-10-08T00:09:48;18.50;99.90
2012;DHT22;1009;51.436;6.972;2023-10-08T00:12:17;18.50;99.90
2012;DHT22;1009;51.436;6.972;2023-10-08T00:14:44;18.50;99.90
2012;DHT22;1009;51.436;6.972;2023-10-08T00:17:15;18.40;99.90
2012;DHT22;1009;51.436;6.972;2023-10-08T00:19:42;18.40;99.90
2012;DHT22;1009;51.436;6.972;2023-10-08T00:22:09;18.40;99.90
2012;DHT22;1009;51.436;6.972;2023-10-08T00:24:39;18.40;99.90
2012;DHT22;1009;51.436;6.972;2023-10-08T00:27:08;18.40;99.90
2012;DHT22;1009;51.436;6.972;2023-10-08T00:29:36;18.40;99.90
2012;DHT22;1009;51.436;6.972;2023-10-08T00:32:06;18.40;99.90
2012;DHT22;1009;51.436;6.972;2023-10-08T00:34:38;18.40;99.90
2012;DHT22;1009;51.436;6.972;2023-10-08T00:37:07;18.40;99.90
2012;DHT22;1009;51.436;6.972;2023-10-08T00:39:36;18.40;99.90
2012;DHT22;1009;51.436;6.972;2023-10-08T00:42:03;18.40;99.90
2012;DHT22;1009;51.436;6.972;2023-10-08T00:44:34;18.40;99.90
2012;DHT22;1009;51.436;6.972;2023-10-08T00:47:07;18.40;99.90
2012;DHT22;1009;51.436;6.972;2023-10-08T00:49:36;18.30;99.90
2012;DHT22;1009;51.436;6.972;2023-10-08T00:52:19;18.30;99.90
2012;DHT22;1009;51.436;6.972;2023-10-08T00:54:55;18.20;99.90
2012;DHT22;1009;51.436;6.972;2023-10-08T00:57:35;18.30;99.90
2012;DHT22;1009;51.436;6.972;2023-10-08T01:00:10;18.20;99.90
2012;DHT22;1009;51.436;6.972;2023-10-08T01:02:43;18.20;99.90
2012;DHT22;1009;51.436;6.972;2023-10-08T01:05:13;18.20;99.90
2012;DHT22;1009;51.436;6.972;2023-10-08T01:07:44;18.10;99.90
2012;DHT22;1009;51.436;6.972;2023-10-08T01:10:14;18.10;99.90
2012;DHT22;1009;51.436;6.972;2023-10-08T01:12:46;18.10;99.90
2012;DHT22;1009;51.436;6.972;2023-10-08T01:15:23;18.10;99.90
2012;DHT22;1009;51.436;6.972;2023-10-08T01:17:54;18.00;99.90
2012;DHT22;1009;51.436;6.972;2023-10-08T01:20:26;18.00;99.90
2012;DHT22;1009;51.436;6.972;2023-10-08T01:23:06;18.00;99.90
2012;DHT22;1009;51.436;6.972;2023-10-08T01:25:36;18.00;99.90
2012;DHT22;1009;51.436;6.972;2023-10-08T01:28:05;17.90;99.90
2012;DHT22;1009;51.436;6.972;2023-10-08T01:30:40;17.90;99.90
2012;DHT22;1009;51.436;6.972;2023-10-08T01:33:08;17.90;99.90
2012;DHT22;1009;51.436;6.972;2023-10-08T01:35:38;17.80;99.90
2012;DHT22;1009;51.436;6.972;2023-10-08T01:38:07;17.90;99.90
2012;DHT22;1009;51.436;6.972;2023-10-08T01:40:34;17.80;99.90
2012;DHT22;1009;51.436;6.972;2023-10-08T01:43:01;17.80;99.90
2012;DHT22;1009;51.436;6.972;2023-10-08T01:45:29;17.80;99.90
2012;DHT22;1009;51.436;6.972;2023-10-08T01:47:57;17.80;99.90
2012;DHT22;1009;51.436;6.972;2023-10-08T01:50:24;17.80;99.90
2012;DHT22;1009;51.436;6.972;2023-10-08T01:52:51;17.80;99.90
2012;DHT22;1009;51.436;6.972;2023-10-08T01:55:19;17.80;99.90
2012;DHT22;1009;51.436;6.972;2023-10-08T01:57:49;17.90;99.90
2012;DHT22;1009;51.436;6.972;2023-10-08T02:00:17;17.90;99.90
2012;DHT22;1009;51.436;6.972;2023-10-08T02:02:45;17.90;99.90
2012;DHT22;1009;51.436;6.972;2023-10-08T02:05:12;17.90;99.90
2012;DHT22;1009;51.436;6.972;2023-10-08T02:07:40;17.90;99.90
2012;DHT22;1009;51.436;6.972;2023-10-08T02:10:08;17.80;99.90
2012;DHT22;1009;51.436;6.972;2023-10-08T02:12:37;17.80;99.90
2012;DHT22;1009;51.436;6.972;2023-10-08T02:15:05;17.70;99.90
2012;DHT22;1009;51.436;6.972;2023-10-08T02:17:32;17.70;99.90
2012;DHT22;1009;51.436;6.972;2023-10-08T02:19:59;17.70;99.90
2012;DHT22;1009;51.436;6.972;2023-10-08T02:22:26;17.70;99.90
2012;DHT22;1009;51.436;6.972;2023-10-08T02:24:53;17.60;99.90
2012;DHT22;1009;51.436;6.972;2023-10-08T02:27:26;17.60;99.90
2012;DHT22;1009;51.436;6.972;2023-10-08T02:29:54;17.60;99.90
2012;DHT22;1009;51.436;6.972;2023-10-08T02:32:21;17.60;99.90
2012;DHT22;1009;51.436;6.972;2023-10-08T02:34:49;17.50;99.90
2012;DHT22;1009;51.436;6.972;2023-10-08T02:37:16;17.50;99.90
2012;DHT22;1009;51.436;6.972;2023-10-08T02:39:42;17.40;99.90
2012;DHT22;1009;51.436;6.972;2023-10-08T02:42:10;17.40;99.90
2012;DHT22;1009;51.436;6.972;2023-10-08T02:44:39;17.40;99.90
2012;DHT22;1009;51.436;6.972;2023-10-08T02:47:09;17.40;99.90
2012;DHT22;1009;51.436;6.972;2023-10-08T02:49:37;17.40;99.90
2012;DHT22;1009;51.436;6.972;2023-10-08T02:52:06;17.40;99.90
2012;DHT22;1009;51.436;6.972;2023-10-08T02:54:34;17.50;99.90
2012;DHT22;1009;51.436;6.972;2023-10-08T02:57:03;17.40;99.90
2012;DHT22;1009;51.436;6.972;2023-10-08T02:59:36;17.40;99.90
2012;DHT22;1009;51.436;6.972;2023-10-08T03:02:07;17.30;99.90
2012;DHT22;1009;51.436;6.972;2023-10-08T03:04:40;17.30;99.90
2012;DHT22;1009;51.436;6.972;2023-10-08T03:07:08;17.20;99.90
2012;DHT22;1009;51.436;6.972;2023-10-08T03:09:46;17.20;99.90
2012;DHT22;1009;51.436;6.972;2023-10-08T03:12:16;17.20;99.90
2012;DHT22;1009;51.436;6.972;2023-10-08T03:14:43;17.20;99.90
2012;DHT22;1009;51.436;6.972;2023-10-08T03:17:28;17.20;99.90
2012;DHT22;1009;51.436;6.972;2023-10-08T03:19:56;17.20;99.90
2012;DHT22;1009;51.436;6.972;2023-10-08T03:22:43;17.20;99.90
2012;DHT22;1009;51.436;6.972;2023-10-08T03:25:12;17.20;99.90
2012;DHT22;1009;51.436;6.972;2023-10-08T03:27:45;17.20;99.90
2012;DHT22;1009;51.436;6.972;2023-10-08T03:30:14;17.20;99.90
2012;DHT22;1009;51.436;6.972;2023-10-08T03:32:43;17.20;99.90
2012;DHT22;1009;51.436;6.972;2023-10-08T03:35:11;17.30;99.90
2012;DHT22;1009;51.436;6.972;2023-10-08T03:37:38;17.20;99.90
2012;DHT22;1009;51.436;6.972;2023-10-08T03:40:11;17.10;99.90
2012;DHT22;1009;51.436;6.972;2023-10-08T03:42:51;17.10;99.90
2012;DHT22;1009;51.436;6.972;2023-10-08T03:45:21;17.10;99.90
2012;DHT22;1009;51.436;6.972;2023-10-08T03:48:04;17.10;99.90
2012;DHT22;1009;51.436;6.972;2023-10-08T03:50:31;17.10;99.90
2012;DHT22;1009;51.436;6.972;2023-10-08T03:53:06;17.10;99.90
2012;DHT22;1009;51.436;6.972;2023-10-08T03:55:37;17.00;99.90
2012;DHT22;1009;51.436;6.972;2023-10-08T03:58:06;17.00;99.90
2012;DHT22;1009;51.436;6.972;2023-10-08T04:00:37;17.10;99.90
2012;DHT22;1009;51.436;6.972;2023-10-08T04:03:08;17.10;99.90
2012;DHT22;1009;51.436;6.972;2023-10-08T04:05:36;17.00;99.90
2012;DHT22;1009;51.436;6.972;2023-10-08T04:08:25;17.00;99.90
2012;DHT22;1009;51.436;6.972;2023-10-08T04:11:08;16.90;99.90
2012;DHT22;1009;51.436;6.972;2023-10-08T04:13:47;17.00;99.90
2012;DHT22;1009;51.436;6.972;2023-10-08T04:16:14;17.00;99.90
2012;DHT22;1009;51.436;6.972;2023-10-08T04:18:46;16.90;99.90
2012;DHT22;1009;51.436;6.972;2023-10-08T04:21:17;16.90;99.90
2012;DHT22;1009;51.436;6.972;2023-10-08T04:23:46;17.00;99.90
2012;DHT22;1009;51.436;6.972;2023-10-08T04:26:16;17.00;99.90
2012;DHT22;1009;51.436;6.972;2023-10-08T04:28:43;16.90;99.90
2012;DHT22;1009;51.436;6.972;2023-10-08T04:31:14;16.90;99.90
2012;DHT22;1009;51.436;6.972;2023-10-08T04:33:45;16.90;99.90
2012;DHT22;1009;51.436;6.972;2023-10-08T04:36:13;16.80;99.90
2012;DHT22;1009;51.436;6.972;2023-10-08T04:38:45;16.80;99.90
2012;DHT22;1009;51.436;6.972;2023-10-08T04:41:14;16.80;99.90
2012;DHT22;1009;51.436;6.972;2023-10-08T04:43:44;16.90;99.90
2012;DHT22;1009;51.436;6.972;2023-10-08T04:46:13;16.90;99.90
2012;DHT22;1009;51.436;6.972;2023-10-08T04:48:51;17.00;99.90
2012;DHT22;1009;51.436;6.972;2023-10-08T04:51:18;17.00;99.90
2012;DHT22;1009;51.436;6.972;2023-10-08T04:53:48;17.00;99.90
2012;DHT22;1009;51.436;6.972;2023-10-08T04:56:15;16.90;99.90
2012;DHT22;1009;51.436;6.972;2023-10-08T04:58:43;16.90;99.90
2012;DHT22;1009;51.436;6.972;2023-10-08T05:01:13;17.00;99.90
2012;DHT22;1009;51.436;6.972;2023-10-08T05:03:55;16.90;99.90
2012;DHT22;1009;51.436;6.972;2023-10-08T05:06:49;16.90;99.90
2012;DHT22;1009;51.436;6.972;2023-10-08T05:09:43;16.80;99.90
2012;DHT22;1009;51.436;6.972;2023-10-08T05:12:17;16.70;99.90
2012;DHT22;1009;51.436;6.972;2023-10-08T05:15:00;16.70;99.90
2012;DHT22;1009;51.436;6.972;2023-10-08T05:17:45;16.70;99.90
2012;DHT22;1009;51.436;6.972;2023-10-08T05:20:35;16.70;99.90
2012;DHT22;1009;51.436;6.972;2023-10-08T05:23:24;16.70;99.90
2012;DHT22;1009;51.436;6.972;2023-10-08T05:26:05;16.70;99.90
2012;DHT22;1009;51.436;6.972;2023-10-08T05:28:45;16.70;99.90
2012;DHT22;1009;51.436;6.972;2023-10-08T05:31:14;16.70;99.90
2012;DHT22;1009;51.436;6.972;2023-10-08T05:34:02;16.70;99.90
2012;DHT22;1009;51.436;6.972;2023-10-08T05:36:41;16.70;99.90
2012;DHT22;1009;51.436;6.972;2023-10-08T05:39:36;16.70;99.90
2012;DHT22;1009;51.436;6.972;2023-10-08T05:42:06;16.70;99.90
2012;DHT22;1009;51.436;6.972;2023-10-08T05:44:43;16.80;99.90
2012;DHT22;1009;51.436;6.972;2023-10-08T05:47:12;16.80;99.90
2012;DHT22;1009;51.436;6.972;2023-10-08T05:50:04;16.80;99.90
2012;DHT22;1009;51.436;6.972;2023-10-08T05:52:50;16.70;99.90
2012;DHT22;1009;51.436;6.972;2023-10-08T05:55:28;16.60;99.90
2012;DHT22;1009;51.436;6.972;2023-10-08T05:58:00;16.60;99.90
2012;DHT22;1009;51.436;6.972;2023-10-08T06:00:39;16.60;99.90
2012;DHT22;1009;51.436;6.972;2023-10-08T06:03:23;16.50;99.90
2012;DHT22;1009;51.436;6.972;2023-10-08T06:06:02;16.50;99.90
2012;DHT22;1009;51.436;6.972;2023-10-08T06:08:49;16.50;99.90
2012;DHT22;1009;51.436;6.972;2023-10-08T06:11:18;16.50;99.90
2012;DHT22;1009;51.436;6.972;2023-10-08T06:14:03;16.40;99.90
2012;DHT22;1009;51.436;6.972;2023-10-08T06:16:39;16.50;99.90
2012;DHT22;1009;51.436;6.972;2023-10-08T06:19:12;16.50;99.90
2012;DHT22;1009;51.436;6.972;2023-10-08T06:21:39;16.30;99.90
2012;DHT22;1009;51.436;6.972;2023-10-08T06:24:08;16.30;99.90
2012;DHT22;1009;51.436;6.972;2023-10-08T06:26:37;16.40;99.90
2012;DHT22;1009;51.436;6.972;2023-10-08T06:29:09;16.40;99.90
2012;DHT22;1009;51.436;6.972;2023-10-08T06:31:45;16.40;99.90
2012;DHT22;1009;51.436;6.972;2023-10-08T06:34:17;16.40;99.90
2012;DHT22;1009;51.436;6.972;2023-10-08T06:36:47;16.30;99.90
2012;DHT22;1009;51.436;6.972;2023-10-08T06:39:20;16.40;99.90
2012;DHT22;1009;51.436;6.972;2023-10-08T06:41:52;16.40;99.90
2012;DHT22;1009;51.436;6.972;2023-10-08T06:44:19;16.50;99.90
2012;DHT22;1009;51.436;6.972;2023-10-08T06:46:45;16.50;99.90
2012;DHT22;1009;51.436;6.972;2023-10-08T06:49:18;16.50;99.90
2012;DHT22;1009;51.436;6.972;2023-10-08T06:51:45;16.50;99.90
2012;DHT22;1009;51.436;6.972;2023-10-08T06:54:13;16.60;99.90
2012;DHT22;1009;51.436;6.972;2023-10-08T06:56:44;16.60;99.90
2012;DHT22;1009;51.436;6.972;2023-10-08T06:59:12;16.50;99.90
2012;DHT22;1009;51.436;6.972;2023-10-08T07:01:39;16.40;99.90
2012;DHT22;1009;51.436;6.972;2023-10-08T07:04:06;16.40;99.90
2012;DHT22;1009;51.436;6.972;2023-10-08T07:06:37;16.40;99.90
2012;DHT22;1009;51.436;6.972;2023-10-08T07:09:06;16.40;99.90
2012;DHT22;1009;51.436;6.972;2023-10-08T07:11:49;16.50;99.90
2012;DHT22;1009;51.436;6.972;2023-10-08T07:14:20;16.60;99.90
2012;DHT22;1009;51.436;6.972;2023-10-08T07:16:48;16.60;99.90
2012;DHT22;1009;51.436;6.972;2023-10-08T07:19:17;16.50;99.90
2012;DHT22;1009;51.436;6.972;2023-10-08T07:21:45;16.50;99.90
2012;DHT22;1009;51.436;6.972;2023-10-08T07:24:13;16.50;99.90
2012;DHT22;1009;51.436;6.972;2023-10-08T07:26:43;16.50;99.90
2012;DHT22;1009;51.436;6.972;2023-10-08T07:29:15;16.50;99.90
2012;DHT22;1009;51.436;6.972;2023-10-08T07:31:43;16.40;99.90
2012;DHT22;1009;51.436;6.972;2023-10-08T07:34:14;16.50;99.90
2012;DHT22;1009;51.436;6.972;2023-10-08T07:36:51;16.40;99.90
2012;DHT22;1009;51.436;6.972;2023-10-08T07:39:19;16.50;99.90
2012;DHT22;1009;51.436;6.972;2023-10-08T07:41:52;16.60;99.90
2012;DHT22;1009;51.436;6.972;2023-10-08T07:44:22;16.70;99.90
2012;DHT22;1009;51.436;6.972;2023-10-08T07:46:49;16.70;99.90
2012;DHT22;1009;51.436;6.972;2023-10-08T07:49:16;16.70;99.90
2012;DHT22;1009;51.436;6.972;2023-10-08T07:51:44;16.80;99.90
2012;DHT22;1009;51.436;6.972;2023-10-08T07:54:17;16.80;99.90
2012;DHT22;1009;51.436;6.972;2023-10-08T07:56:45;16.80;99.90
2012;DHT22;1009;51.436;6.972;2023-10-08T07:59:12;16.90;99.90
2012;DHT22;1009;51.436;6.972;2023-10-08T08:01:42;16.90;99.90
2012;DHT22;1009;51.436;6.972;2023-10-08T08:04:09;16.80;99.90
2012;DHT22;1009;51.436;6.972;2023-10-08T08:06:37;16.70;99.90
2012;DHT22;1009;51.436;6.972;2023-10-08T08:09:04;16.70;99.90
2012;DHT22;1009;51.436;6.972;2023-10-08T08:11:43;16.80;99.90
2012;DHT22;1009;51.436;6.972;2023-10-08T08:14:11;16.90;99.90
2012;DHT22;1009;51.436;6.972;2023-10-08T08:16:43;17.00;99.90
2012;DHT22;1009;51.436;6.972;2023-10-08T08:19:13;17.00;99.90
2012;DHT22;1009;51.436;6.972;2023-10-08T08:21:41;17.00;99.90
2012;DHT22;1009;51.436;6.972;2023-10-08T08:24:11;16.80;99.90
2012;DHT22;1009;51.436;6.972;2023-10-08T08:26:38;16.70;99.90
2012;DHT22;1009;51.436;6.972;2023-10-08T08:29:10;16.60;99.90
2012;DHT22;1009;51.436;6.972;2023-10-08T08:31:40;16.60;99.90
2012;DHT22;1009;51.436;6.972;2023-10-08T08:34:13;16.50;99.90
2012;DHT22;1009;51.436;6.972;2023-10-08T08:36:45;16.50;99.90
2012;DHT22;1009;51.436;6.972;2023-10-08T08:39:14;16.40;99.90
2012;DHT22;1009;51.436;6.972;2023-10-08T08:41:58;16.30;99.90
2012;DHT22;1009;51.436;6.972;2023-10-08T08:44:27;16.30;99.90
2012;DHT22;1009;51.436;6.972;2023-10-08T08:46:57;16.30;99.90
2012;DHT22;1009;51.436;6.972;2023-10-08T08:49:26;16.20;99.90
2012;DHT22;1009;51.436;6.972;2023-10-08T08:51:55;16.20;99.90
2012;DHT22;1009;51.436;6.972;2023-10-08T08:54:26;16.20;99.90
2012;DHT22;1009;51.436;6.972;2023-10-08T08:56:56;16.20;99.90
2012;DHT22;1009;51.436;6.972;2023-10-08T08:59:23;16.10;99.90
2012;DHT22;1009;51.436;6.972;2023-10-08T09:01:51;16.00;99.90
2012;DHT22;1009;51.436;6.972;2023-10-08T09:04:27;15.80;99.90
2012;DHT22;1009;51.436;6.972;2023-10-08T09:06:54;15.70;99.90
2012;DHT22;1009;51.436;6.972;2023-10-08T09:09:21;15.70;99.90
2012;DHT22;1009;51.436;6.972;2023-10-08T09:11:48;15.70;99.90
2012;DHT22;1009;51.436;6.972;2023-10-08T09:14:17;15.80;99.90
2012;DHT22;1009;51.436;6.972;2023-10-08T09:16:44;15.80;99.90
2012;DHT22;1009;51.436;6.972;2023-10-08T09:19:12;15.80;99.90
2012;DHT22;1009;51.436;6.972;2023-10-08T09:21:59;15.70;99.90
2012;DHT22;1009;51.436;6.972;2023-10-08T09:24:26;15.80;99.90
2012;DHT22;1009;51.436;6.972;2023-10-08T09:26:54;15.80;99.90
2012;DHT22;1009;51.436;6.972;2023-10-08T09:29:24;15.70;99.90
2012;DHT22;1009;51.436;6.972;2023-10-08T09:31:53;15.70;99.90
2012;DHT22;1009;51.436;6.972;2023-10-08T09:34:26;15.60;99.90
2012;DHT22;1009;51.436;6.972;2023-10-08T09:36:56;15.60;99.90
2012;DHT22;1009;51.436;6.972;2023-10-08T09:39:25;15.60;99.90
2012;DHT22;1009;51.436;6.972;2023-10-08T09:41:55;15.50;99.90
2012;DHT22;1009;51.436;6.972;2023-10-08T09:44:22;15.40;99.90
2012;DHT22;1009;51.436;6.972;2023-10-08T09:46:54;15.50;99.90
2012;DHT22;1009;51.436;6.972;2023-10-08T09:49:30;15.50;99.90
2012;DHT22;1009;51.436;6.972;2023-10-08T09:52:02;15.60;99.90
2012;DHT22;1009;51.436;6.972;2023-10-08T09:54:33;15.70;99.90
2012;DHT22;1009;51.436;6.972;2023-10-08T09:57:05;15.80;99.90
2012;DHT22;1009;51.436;6.972;2023-10-08T09:59:33;15.80;99.90
2012;DHT22;1009;51.436;6.972;2023-10-08T10:02:00;15.80;99.90
2012;DHT22;1009;51.436;6.972;2023-10-08T10:04:30;15.80;99.90
2012;DHT22;1009;51.436;6.972;2023-10-08T10:06:57;15.80;99.90
2012;DHT22;1009;51.436;6.972;2023-10-08T10:09:26;15.80;99.90
2012;DHT22;1009;51.436;6.972;2023-10-08T10:11:54;15.90;99.90
2012;DHT22;1009;51.436;6.972;2023-10-08T10:14:23;15.90;99.90
2012;DHT22;1009;51.436;6.972;2023-10-08T10:17:08;15.80;99.90
2012;DHT22;1009;51.436;6.972;2023-10-08T10:19:36;15.90;99.90
2012;DHT22;1009;51.436;6.972;2023-10-08T10:22:03;15.80;99.90
2012;DHT22;1009;51.436;6.972;2023-10-08T10:24:35;15.80;99.90
2012;DHT22;1009;51.436;6.972;2023-10-08T10:27:10;15.80;99.90
2012;DHT22;1009;51.436;6.972;2023-10-08T10:29:37;15.70;99.90
2012;DHT22;1009;51.436;6.972;2023-10-08T10:32:05;15.70;99.90
2012;DHT22;1009;51.436;6.972;2023-10-08T10:34:32;15.70;99.90
2012;DHT22;1009;51.436;6.972;2023-10-08T10:37:01;15.70;99.90
2012;DHT22;1009;51.436;6.972;2023-10-08T10:39:36;15.70;99.90
2012;DHT22;1009;51.436;6.972;2023-10-08T10:42:07;15.70;99.90
2012;DHT22;1009;51.436;6.972;2023-10-08T10:44:46;15.80;99.90
2012;DHT22;1009;51.436;6.972;2023-10-08T10:47:16;15.80;99.90
2012;DHT22;1009;51.436;6.972;2023-10-08T10:50:08;15.70;99.90
2012;DHT22;1009;51.436;6.972;2023-10-08T10:52:53;15.50;99.90
2012;DHT22;1009;51.436;6.972;2023-10-08T10:55:20;15.50;99.90
2012;DHT22;1009;51.436;6.972;2023-10-08T10:57:50;15.50;99.90
2012;DHT22;1009;51.436;6.972;2023-10-08T11:00:29;15.50;99.90
2012;DHT22;1009;51.436;6.972;2023-10-08T11:03:22;15.60;99.90
2012;DHT22;1009;51.436;6.972;2023-10-08T11:05:51;15.70;99.90
2012;DHT22;1009;51.436;6.972;2023-10-08T11:08:21;15.70;99.90
2012;DHT22;1009;51.436;6.972;2023-10-08T11:10:51;15.70;99.90
2012;DHT22;1009;51.436;6.972;2023-10-08T11:13:24;15.70;99.90
2012;DHT22;1009;51.436;6.972;2023-10-08T11:15:54;15.70;99.90
2012;DHT22;1009;51.436;6.972;2023-10-08T11:18:24;15.70;99.90
2012;DHT22;1009;51.436;6.972;2023-10-08T11:20:53;15.80;99.90
2012;DHT22;1009;51.436;6.972;2023-10-08T11:23:41;15.90;99.90
2012;DHT22;1009;51.436;6.972;2023-10-08T11:26:10;15.90;99.90
2012;DHT22;1009;51.436;6.972;2023-10-08T11:28:39;16.00;99.90
2012;DHT22;1009;51.436;6.972;2023-10-08T11:31:10;16.00;99.90
2012;DHT22;1009;51.436;6.972;2023-10-08T11:33:38;16.00;99.90
2012;DHT22;1009;51.436;6.972;2023-10-08T11:36:06;16.10;99.90
2012;DHT22;1009;51.436;6.972;2023-10-08T11:38:44;16.10;99.90
2012;DHT22;1009;51.436;6.972;2023-10-08T11:41:16;16.10;99.90
2012;DHT22;1009;51.436;6.972;2023-10-08T11:43:51;16.00;99.90
2012;DHT22;1009;51.436;6.972;2023-10-08T11:46:23;16.00;99.90
2012;DHT22;1009;51.436;6.972;2023-10-08T11:48:53;16.00;99.90
2012;DHT22;1009;51.436;6.972;2023-10-08T11:51:23;16.00;99.90
2012;DHT22;1009;51.436;6.972;2023-10-08T11:53:49;16.10;99.90
2012;DHT22;1009;51.436;6.972;2023-10-08T11:56:18;16.30;99.90
2012;DHT22;1009;51.436;6.972;2023-10-08T11:58:48;16.30;99.90
2012;DHT22;1009;51.436;6.972;2023-10-08T12:01:16;16.30;99.90
2012;DHT22;1009;51.436;6.972;2023-10-08T12:03:44;16.40;99.90
2012;DHT22;1009;51.436;6.972;2023-10-08T12:06:11;16.40;99.90
2012;DHT22;1009;51.436;6.972;2023-10-08T12:08:41;16.50;99.90
2012;DHT22;1009;51.436;6.972;2023-10-08T12:11:11;16.60;99.90
2012;DHT22;1009;51.436;6.972;2023-10-08T12:13:40;16.70;99.90
2012;DHT22;1009;51.436;6.972;2023-10-08T12:16:11;16.80;99.90
2012;DHT22;1009;51.436;6.972;2023-10-08T12:18:44;16.80;99.90
2012;DHT22;1009;51.436;6.972;2023-10-08T12:21:14;16.80;99.90
2012;DHT22;1009;51.436;6.972;2023-10-08T12:23:41;16.90;99.90
2012;DHT22;1009;51.436;6.972;2023-10-08T12:26:11;16.70;99.90
2012;DHT22;1009;51.436;6.972;2023-10-08T12:28:42;16.80;99.90
2012;DHT22;1009;51.436;6.972;2023-10-08T12:31:11;16.70;99.90
2012;DHT22;1009;51.436;6.972;2023-10-08T12:33:38;16.70;99.90
2012;DHT22;1009;51.436;6.972;2023-10-08T12:36:05;16.60;99.90
2012;DHT22;1009;51.436;6.972;2023-10-08T12:38:37;16.60;99.90
2012;DHT22;1009;51.436;6.972;2023-10-08T12:41:04;16.70;99.90
2012;DHT22;1009;51.436;6.972;2023-10-08T12:43:38;16.70;99.90
2012;DHT22;1009;51.436;6.972;2023-10-08T12:46:09;16.70;99.90
2012;DHT22;1009;51.436;6.972;2023-10-08T12:48:44;16.60;99.90
2012;DHT22;1009;51.436;6.972;2023-10-08T12:51:16;16.50;99.90
2012;DHT22;1009;51.436;6.972;2023-10-08T12:53:43;16.50;99.90
2012;DHT22;1009;51.436;6.972;2023-10-08T12:56:17;16.50;99.90
2012;DHT22;1009;51.436;6.972;2023-10-08T12:58:47;16.50;99.90
2012;DHT22;1009;51.436;6.972;2023-10-08T13:01:16;16.50;99.90
2012;DHT22;1009;51.436;6.972;2023-10-08T13:03:44;16.60;99.90
2012;DHT22;1009;51.436;6.972;2023-10-08T13:06:15;16.60;99.90
2012;DHT22;1009;51.436;6.972;2023-10-08T13:08:47;16.60;99.90
2012;DHT22;1009;51.436;6.972;2023-10-08T13:11:14;16.60;99.90
2012;DHT22;1009;51.436;6.972;2023-10-08T13:13:51;16.60;99.90
2012;DHT22;1009;51.436;6.972;2023-10-08T13:16:19;16.50;99.90
2012;DHT22;1009;51.436;6.972;2023-10-08T13:18:47;16.60;99.90
2012;DHT22;1009;51.436;6.972;2023-10-08T13:21:14;16.70;99.90
2012;DHT22;1009;51.436;6.972;2023-10-08T13:23:41;16.80;99.90
2012;DHT22;1009;51.436;6.972;2023-10-08T13:26:08;16.90;99.90
2012;DHT22;1009;51.436;6.972;2023-10-08T13:28:35;16.80;99.90
2012;DHT22;1009;51.436;6.972;2023-10-08T13:31:03;16.80;99.90
2012;DHT22;1009;51.436;6.972;2023-10-08T13:33:37;16.80;99.90
2012;DHT22;1009;51.436;6.972;2023-10-08T13:36:08;16.80;99.90
2012;DHT22;1009;51.436;6.972;2023-10-08T13:38:35;16.80;99.90
2012;DHT22;1009;51.436;6.972;2023-10-08T13:41:03;16.80;99.90
2012;DHT22;1009;51.436;6.972;2023-10-08T13:43:32;16.80;99.90
2012;DHT22;1009;51.436;6.972;2023-10-08T13:46:04;16.90;99.90
2012;DHT22;1009;51.436;6.972;2023-10-08T13:48:32;16.90;99.90
2012;DHT22;1009;51.436;6.972;2023-10-08T13:51:03;16.90;99.90
2012;DHT22;1009;51.436;6.972;2023-10-08T13:53:31;17.10;99.90
2012;DHT22;1009;51.436;6.972;2023-10-08T13:55:58;17.10;99.90
2012;DHT22;1009;51.436;6.972;2023-10-08T13:58:27;17.10;99.90
2012;DHT22;1009;51.436;6.972;2023-10-08T14:00:55;17.10;99.90
2012;DHT22;1009;51.436;6.972;2023-10-08T14:03:22;17.20;99.90
2012;DHT22;1009;51.436;6.972;2023-10-08T14:05:50;17.20;99.90
2012;DHT22;1009;51.436;6.972;2023-10-08T14:08:18;17.30;99.90
2012;DHT22;1009;51.436;6.972;2023-10-08T14:10:48;17.30;99.90
2012;DHT22;1009;51.436;6.972;2023-10-08T14:13:15;17.40;99.90
2012;DHT22;1009;51.436;6.972;2023-10-08T14:15:45;17.30;99.90
2012;DHT22;1009;51.436;6.972;2023-10-08T14:18:14;17.20;99.90
2012;DHT22;1009;51.436;6.972;2023-10-08T14:20:43;17.10;99.90
2012;DHT22;1009;51.436;6.972;2023-10-08T14:23:13;17.10;99.90
2012;DHT22;1009;51.436;6.972;2023-10-08T14:25:43;17.00;99.90
2012;DHT22;1009;51.436;6.972;2023-10-08T14:28:11;17.10;99.90
2012;DHT22;1009;51.436;6.972;2023-10-08T14:30:48;17.10;99.90
2012;DHT22;1009;51.436;6.972;2023-10-08T14:33:19;17.10;99.90
2012;DHT22;1009;51.436;6.972;2023-10-08T14:35:52;17.20;99.90
2012;DHT22;1009;51.436;6.972;2023-10-08T14:38:37;17.20;99.90
2012;DHT22;1009;51.436;6.972;2023-10-08T14:41:23;17.20;99.90
2012;DHT22;1009;51.436;6.972;2023-10-08T14:44:07;17.10;99.90
2012;DHT22;1009;51.436;6.972;2023-10-08T14:46:33;17.10;99.90
2012;DHT22;1009;51.436;6.972;2023-10-08T14:49:03;17.10;99.90
2012;DHT22;1009;51.436;6.972;2023-10-08T14:51:36;17.10;99.90
2012;DHT22;1009;51.436;6.972;2023-10-08T14:54:04;17.00;99.90
2012;DHT22;1009;51.436;6.972;2023-10-08T14:56:34;17.00;99.90
2012;DHT22;1009;51.436;6.972;2023-10-08T14:59:02;17.10;99.90
2012;DHT22;1009;51.436;6.972;2023-10-08T15:01:29;17.00;99.90
2012;DHT22;1009;51.436;6.972;2023-10-08T15:03:58;17.00;99.90
2012;DHT22;1009;51.436;6.972;2023-10-08T15:06:29;17.00;99.90
2012;DHT22;1009;51.436;6.972;2023-10-08T15:08:56;17.10;99.90
2012;DHT22;1009;51.436;6.972;2023-10-08T15:11:23;17.20;99.90
2012;DHT22;1009;51.436;6.972;2023-10-08T15:13:52;17.20;99.90
2012;DHT22;1009;51.436;6.972;2023-10-08T15:16:20;17.20;99.90
2012;DHT22;1009;51.436;6.972;2023-10-08T15:18:48;17.10;99.90
2012;DHT22;1009;51.436;6.972;2023-10-08T15:21:16;17.20;99.90
2012;DHT22;1009;51.436;6.972;2023-10-08T15:23:43;17.20;99.90
2012;DHT22;1009;51.436;6.972;2023-10-08T15:26:11;17.10;99.90
2012;DHT22;1009;51.436;6.972;2023-10-08T15:28:38;17.20;99.90
2012;DHT22;1009;51.436;6.972;2023-10-08T15:31:06;17.10;99.90
2012;DHT22;1009;51.436;6.972;2023-10-08T15:33:33;17.10;99.90
2012;DHT22;1009;51.436;6.972;2023-10-08T15:36:00;17.10;99.90
2012;DHT22;1009;51.436;6.972;2023-10-08T15:38:27;17.10;99.90
2012;DHT22;1009;51.436;6.972;2023-10-08T15:40:53;17.10;99.90
2012;DHT22;1009;51.436;6.972;2023-10-08T15:43:20;17.10;99.90
2012;DHT22;1009;51.436;6.972;2023-10-08T15:45:47;17.00;99.90
2012;DHT22;1009;51.436;6.972;2023-10-08T15:48:15;17.10;99.90
2012;DHT22;1009;51.436;6.972;2023-10-08T15:50:42;17.00;99.90
2012;DHT22;1009;51.436;6.972;2023-10-08T15:53:09;17.00;99.90
2012;DHT22;1009;51.436;6.972;2023-10-08T15:55:36;17.00;99.90
2012;DHT22;1009;51.436;6.972;2023-10-08T15:58:03;17.10;99.90
2012;DHT22;1009;51.436;6.972;2023-10-08T16:00:30;17.10;99.90
2012;DHT22;1009;51.436;6.972;2023-10-08T16:02:58;17.10;99.90
2012;DHT22;1009;51.436;6.972;2023-10-08T16:05:26;17.10;99.90
2012;DHT22;1009;51.436;6.972;2023-10-08T16:07:53;17.10;99.90
2012;DHT22;1009;51.436;6.972;2023-10-08T16:10:24;17.20;99.90
2012;DHT22;1009;51.436;6.972;2023-10-08T16:12:53;17.20;99.90
2012;DHT22;1009;51.436;6.972;2023-10-08T16:15:20;17.20;99.90
2012;DHT22;1009;51.436;6.972;2023-10-08T16:17:47;17.20;99.90
2012;DHT22;1009;51.436;6.972;2023-10-08T16:20:15;17.20;99.90
2012;DHT22;1009;51.436;6.972;2023-10-08T16:22:45;17.10;99.90
2012;DHT22;1009;51.436;6.972;2023-10-08T16:25:13;17.10;99.90
2012;DHT22;1009;51.436;6.972;2023-10-08T16:27:42;17.00;99.90